createdAt,value
2023-12-12T00:01:28.474Z,2.88
2023-12-12T00:03:59.980Z,3.75
2023-12-12T00:06:30.794Z,3.20
2023-12-12T00:09:01.124Z,5.50
2023-12-12T00:11:31.456Z,3.08
2023-12-12T00:14:01.757Z,2.47
2023-12-12T00:16:34.761Z,2.38
2023-12-12T00:19:06.308Z,2.78
2023-12-12T00:21:37.077Z,2.60
2023-12-12T00:24:11.696Z,2.90
2023-12-12T00:26:42.455Z,2.45
2023-12-12T00:29:17.269Z,2.50
2023-12-12T00:31:50.198Z,2.28
2023-12-12T00:34:20.569Z,2.10
2023-12-12T00:36:50.966Z,3.20
2023-12-12T00:39:21.292Z,3.03
2023-12-12T00:41:51.900Z,3.33
2023-12-12T00:44:22.175Z,2.83
2023-12-12T00:46:55.044Z,2.75
2023-12-12T00:49:25.447Z,2.97
2023-12-12T00:51:55.767Z,3.35
2023-12-12T00:54:26.058Z,2.67
2023-12-12T00:56:56.352Z,2.00
2023-12-12T00:59:26.580Z,3.30
2023-12-12T01:01:59.534Z,3.00
2023-12-12T01:04:29.847Z,2.70
2023-12-12T01:07:00.203Z,3.20
2023-12-12T01:09:30.552Z,3.65
2023-12-12T01:12:00.845Z,3.08
2023-12-12T01:14:31.217Z,2.90
2023-12-12T01:17:04.957Z,2.83
2023-12-12T01:19:35.560Z,2.75
2023-12-12T01:22:06.163Z,2.60
2023-12-12T01:24:36.461Z,3.25
2023-12-12T01:27:07.251Z,2.85
2023-12-12T01:29:37.490Z,2.90
2023-12-12T01:32:10.749Z,2.75
2023-12-12T01:34:41.127Z,2.70
2023-12-12T01:37:11.456Z,2.60
2023-12-12T01:39:41.724Z,2.83
2023-12-12T01:42:12.014Z,3.00
2023-12-12T01:44:42.286Z,2.75
2023-12-12T01:47:15.980Z,3.10
2023-12-12T01:49:48.422Z,2.28
2023-12-12T01:52:19.752Z,2.42
2023-12-12T01:54:53.359Z,3.25
2023-12-12T01:57:25.701Z,2.83
2023-12-12T01:59:57.273Z,2.92
2023-12-12T02:02:30.224Z,2.80
2023-12-12T02:05:00.723Z,2.88
2023-12-12T02:07:33.787Z,2.88
2023-12-12T02:10:05.420Z,2.42
2023-12-12T02:12:36.720Z,3.25
2023-12-12T02:15:08.022Z,2.58
2023-12-12T02:17:40.921Z,3.20
2023-12-12T02:20:13.693Z,2.90
2023-12-12T02:22:46.864Z,2.80
2023-12-12T02:25:21.906Z,2.80
2023-12-12T02:27:52.521Z,3.20
2023-12-12T02:30:23.879Z,2.63
2023-12-12T02:32:54.252Z,3.47
2023-12-12T02:35:24.664Z,3.25
2023-12-12T02:37:57.465Z,3.70
2023-12-12T02:40:27.785Z,2.97
2023-12-12T02:42:58.080Z,2.92
2023-12-12T02:45:28.422Z,2.50
2023-12-12T02:47:59.821Z,3.10
2023-12-12T02:50:30.163Z,2.88
2023-12-12T02:53:03.318Z,2.88
2023-12-12T02:55:33.717Z,3.03
2023-12-12T02:58:04.123Z,3.67
2023-12-12T03:00:34.471Z,3.33
2023-12-12T03:03:05.043Z,2.90
2023-12-12T03:05:35.426Z,3.17
2023-12-12T03:08:08.520Z,2.97
2023-12-12T03:10:39.201Z,3.10
2023-12-12T03:13:09.546Z,10.47
2023-12-12T03:15:41.210Z,5.87
2023-12-12T03:18:14.338Z,3.50
2023-12-12T03:20:47.474Z,3.33
2023-12-12T03:23:20.364Z,3.53
2023-12-12T03:25:50.770Z,2.97
2023-12-12T03:28:21.594Z,3.50
2023-12-12T03:30:51.955Z,3.47
2023-12-12T03:33:22.419Z,3.13
2023-12-12T03:35:52.756Z,3.87
2023-12-12T03:38:26.165Z,3.47
2023-12-12T03:40:56.673Z,3.60
2023-12-12T03:43:26.986Z,6.93
2023-12-12T03:45:57.357Z,4.00
2023-12-12T03:48:27.771Z,3.22
2023-12-12T03:50:59.019Z,3.65
2023-12-12T03:53:34.158Z,3.40
2023-12-12T03:56:06.678Z,3.97
2023-12-12T03:58:37.730Z,4.10
2023-12-12T04:01:08.624Z,4.18
2023-12-12T04:03:40.170Z,4.07
2023-12-12T04:06:15.543Z,3.80
2023-12-12T04:08:48.388Z,3.77
2023-12-12T04:11:18.641Z,4.07
2023-12-12T04:13:48.882Z,4.72
2023-12-12T04:16:19.224Z,4.38
2023-12-12T04:18:49.690Z,3.80
2023-12-12T04:21:20.363Z,6.15
2023-12-12T04:23:53.247Z,4.47
2023-12-12T04:26:23.541Z,3.92
2023-12-12T04:28:53.839Z,3.75
2023-12-12T04:31:24.158Z,4.22
2023-12-12T04:33:54.581Z,4.50
2023-12-12T04:36:27.315Z,4.53
2023-12-12T04:39:00.183Z,3.97
2023-12-12T04:41:30.383Z,4.13
2023-12-12T04:44:00.654Z,4.80
2023-12-12T04:46:30.901Z,4.18
2023-12-12T04:49:01.874Z,4.22
2023-12-12T04:51:34.651Z,4.30
2023-12-12T04:54:07.962Z,4.20
2023-12-12T04:56:38.229Z,3.97
2023-12-12T04:59:08.557Z,4.00
2023-12-12T05:01:40.124Z,4.63
2023-12-12T05:04:10.604Z,4.68
2023-12-12T05:06:41.163Z,3.88
2023-12-12T05:09:14.132Z,4.90
2023-12-12T05:11:45.569Z,4.13
2023-12-12T05:14:15.930Z,4.40
2023-12-12T05:16:54.062Z,3.93
2023-12-12T05:19:31.617Z,3.97
2023-12-12T05:22:01.978Z,4.80
2023-12-12T05:24:34.899Z,4.60
2023-12-12T05:27:05.189Z,4.67
2023-12-12T05:29:35.466Z,3.97
2023-12-12T05:32:05.980Z,4.70
2023-12-12T05:34:36.689Z,4.63
2023-12-12T05:37:09.543Z,4.63
2023-12-12T05:39:42.609Z,5.27
2023-12-12T05:42:15.241Z,4.15
2023-12-12T05:44:45.531Z,4.70
2023-12-12T05:47:15.826Z,4.30
2023-12-12T05:49:46.254Z,4.53
2023-12-12T05:52:16.621Z,4.17
2023-12-12T05:54:49.920Z,4.40
2023-12-12T05:57:20.300Z,5.33
2023-12-12T05:59:53.224Z,4.03
2023-12-12T06:02:23.511Z,5.40
2023-12-12T06:04:53.905Z,4.43
2023-12-12T06:07:24.298Z,4.77
2023-12-12T06:09:57.145Z,4.30
2023-12-12T06:12:27.499Z,5.38
2023-12-12T06:14:58.544Z,4.32
2023-12-12T06:17:29.298Z,4.40
2023-12-12T06:20:02.336Z,4.75
2023-12-12T06:22:32.729Z,6.00
2023-12-12T06:25:10.461Z,4.82
2023-12-12T06:27:40.932Z,4.53
2023-12-12T06:30:22.928Z,4.47
2023-12-12T06:32:55.264Z,4.55
2023-12-12T06:35:26.950Z,4.43
2023-12-12T06:37:57.599Z,4.55
2023-12-12T06:40:32.592Z,3.87
2023-12-12T06:43:03.041Z,4.13
2023-12-12T06:45:34.855Z,4.47
2023-12-12T06:48:05.222Z,4.43
2023-12-12T06:50:35.536Z,4.30
2023-12-12T06:53:09.491Z,4.78
2023-12-12T06:55:42.837Z,4.78
2023-12-12T06:58:13.064Z,4.35
2023-12-12T07:00:44.063Z,3.97
2023-12-12T07:03:17.404Z,4.97
2023-12-12T07:05:48.255Z,4.82
2023-12-12T07:08:18.615Z,4.82
2023-12-12T07:10:52.428Z,4.13
2023-12-12T07:13:22.924Z,5.17
2023-12-12T07:15:53.245Z,4.90
2023-12-12T07:18:24.457Z,5.07
2023-12-12T07:20:54.920Z,4.50
2023-12-12T07:23:25.275Z,4.63
2023-12-12T07:25:58.143Z,5.10
2023-12-12T07:28:28.521Z,4.80
2023-12-12T07:31:02.051Z,5.17
2023-12-12T07:33:32.771Z,4.07
2023-12-12T07:36:03.409Z,5.13
2023-12-12T07:38:33.680Z,4.63
2023-12-12T07:41:06.767Z,4.80
2023-12-12T07:43:37.272Z,5.07
2023-12-12T07:46:08.257Z,4.17
2023-12-12T07:48:38.620Z,4.73
2023-12-12T07:51:10.691Z,4.90
2023-12-12T07:53:41.038Z,5.10
2023-12-12T07:56:14.412Z,4.90
2023-12-12T07:58:44.772Z,4.40
2023-12-12T08:01:15.401Z,4.33
2023-12-12T08:03:46.099Z,4.30
2023-12-12T08:06:19.396Z,4.37
2023-12-12T08:08:50.740Z,3.60
2023-12-12T08:11:27.068Z,3.77
2023-12-12T08:14:00.154Z,4.27
2023-12-12T08:16:30.803Z,3.73
2023-12-12T08:19:02.425Z,4.13
2023-12-12T08:21:32.844Z,3.50
2023-12-12T08:24:04.526Z,4.00
2023-12-12T08:26:44.900Z,3.30
2023-12-12T08:29:16.712Z,4.55
2023-12-12T08:31:47.787Z,3.70
2023-12-12T08:34:18.281Z,4.25
2023-12-12T08:36:48.959Z,4.82
2023-12-12T08:39:19.424Z,3.47
2023-12-12T08:41:52.808Z,4.22
2023-12-12T08:44:23.114Z,3.20
2023-12-12T08:46:53.346Z,2.90
2023-12-12T08:49:23.761Z,3.22
2023-12-12T08:51:54.130Z,3.15
2023-12-12T08:54:25.733Z,2.42
2023-12-12T08:56:58.596Z,3.83
2023-12-12T08:59:28.928Z,3.17
2023-12-12T09:02:01.715Z,3.10
2023-12-12T09:04:34.003Z,3.15
2023-12-12T09:07:04.368Z,2.85
2023-12-12T09:09:34.729Z,2.58
2023-12-12T09:12:09.914Z,2.30
2023-12-12T09:14:40.485Z,3.08
2023-12-12T09:17:10.703Z,3.20
2023-12-12T09:19:41.173Z,3.08
2023-12-12T09:22:11.548Z,2.95
2023-12-12T09:24:44.261Z,2.80
2023-12-12T09:27:19.002Z,3.25
2023-12-12T09:29:50.352Z,3.15
2023-12-12T09:32:20.686Z,3.35
2023-12-12T09:34:53.335Z,3.35
2023-12-12T09:37:25.032Z,3.92
2023-12-12T09:39:55.421Z,2.70
2023-12-12T09:42:29.694Z,2.17
2023-12-12T09:45:04.456Z,3.17
2023-12-12T09:47:40.359Z,3.25
2023-12-12T09:50:14.955Z,4.03
2023-12-12T09:52:48.755Z,3.42
2023-12-12T09:55:23.740Z,3.35
2023-12-12T09:57:56.758Z,3.90
2023-12-12T10:00:27.051Z,4.10
2023-12-12T10:03:05.578Z,4.75
2023-12-12T10:05:41.852Z,3.92
2023-12-12T10:08:14.833Z,3.17
2023-12-12T10:10:45.907Z,3.47
2023-12-12T10:13:21.342Z,3.78
2023-12-12T10:15:53.897Z,3.20
2023-12-12T10:18:26.055Z,3.22
2023-12-12T10:20:57.525Z,2.80
2023-12-12T10:23:30.290Z,2.50
2023-12-12T10:26:06.679Z,3.33
2023-12-12T10:28:39.722Z,2.80
2023-12-12T10:31:11.377Z,2.42
2023-12-12T10:33:42.165Z,2.70
2023-12-12T10:36:13.979Z,2.50
2023-12-12T10:38:45.943Z,1.98
2023-12-12T10:41:21.102Z,2.22
2023-12-12T10:43:55.323Z,2.10
2023-12-12T10:46:31.434Z,2.40
2023-12-12T10:49:04.876Z,2.47
2023-12-12T10:51:36.189Z,2.05
2023-12-12T10:54:09.710Z,2.63
2023-12-12T10:56:40.948Z,2.85
2023-12-12T10:59:56.331Z,2.63
2023-12-12T11:02:08.994Z,3.08
2023-12-12T11:04:39.372Z,3.40
2023-12-12T11:07:09.948Z,3.45
2023-12-12T11:09:40.246Z,3.78
2023-12-12T11:12:12.187Z,3.60
2023-12-12T11:14:45.765Z,3.47
2023-12-12T11:17:16.065Z,3.45
2023-12-12T11:19:47.853Z,3.55
2023-12-12T11:22:43.492Z,3.40
2023-12-12T11:25:21.547Z,3.50
2023-12-12T11:27:55.354Z,3.25
2023-12-12T11:30:39.047Z,3.10
2023-12-12T11:33:13.600Z,3.28
2023-12-12T11:35:43.936Z,3.28
2023-12-12T11:38:38.899Z,2.95
2023-12-12T11:41:14.559Z,4.07
2023-12-12T11:43:46.456Z,3.28
2023-12-12T11:46:27.834Z,3.53
2023-12-12T11:48:58.266Z,3.15
2023-12-12T11:51:48.001Z,3.55
2023-12-12T11:54:25.639Z,3.75
2023-12-12T11:57:03.840Z,3.60
2023-12-12T11:59:35.446Z,3.88
2023-12-12T12:02:09.063Z,3.47
2023-12-12T12:04:40.345Z,3.65
2023-12-12T12:07:10.887Z,4.18
2023-12-12T12:09:42.969Z,4.20
2023-12-12T12:12:13.608Z,4.63
2023-12-12T12:14:46.737Z,3.75
2023-12-12T12:17:19.648Z,4.55
2023-12-12T12:19:49.980Z,4.15
2023-12-12T12:22:20.508Z,4.00
2023-12-12T12:27:23.181Z,3.15
2023-12-12T12:30:05.564Z,3.80
2023-12-12T12:32:38.424Z,3.42
2023-12-12T12:35:13.935Z,3.83
2023-12-12T12:37:45.141Z,3.35
2023-12-12T12:40:15.729Z,3.47
2023-12-12T12:42:47.947Z,3.38
2023-12-12T12:45:19.687Z,3.60
2023-12-12T12:47:56.464Z,3.38
2023-12-12T12:50:28.143Z,3.80
2023-12-12T12:52:59.552Z,3.20
2023-12-12T12:55:32.211Z,4.15
2023-12-12T12:58:03.444Z,4.65
2023-12-12T13:00:33.804Z,3.63
2023-12-12T13:03:07.812Z,3.60
2023-12-12T13:05:38.184Z,2.97
2023-12-12T13:08:08.670Z,3.17
2023-12-12T13:10:46.855Z,2.90
2023-12-12T13:13:21.977Z,2.67
2023-12-12T13:15:52.873Z,2.88
2023-12-12T13:18:26.451Z,3.03
2023-12-12T13:20:56.788Z,3.50
2023-12-12T13:23:27.082Z,3.65
2023-12-12T13:26:01.575Z,4.10
2023-12-12T13:28:32.060Z,3.70
2023-12-12T13:31:03.349Z,3.78
2023-12-12T13:33:36.664Z,3.80
2023-12-12T13:36:08.346Z,4.10
2023-12-12T13:38:38.717Z,4.20
2023-12-12T13:41:09.843Z,3.40
2023-12-12T13:43:40.216Z,2.80
2023-12-12T13:46:10.913Z,2.83
2023-12-12T13:48:43.799Z,3.10
2023-12-12T13:51:15.677Z,2.22
2023-12-12T13:53:47.433Z,2.10
2023-12-12T13:56:17.778Z,2.05
2023-12-12T13:58:54.822Z,1.50
2023-12-12T14:01:32.194Z,1.60
2023-12-12T14:04:09.741Z,1.10
2023-12-12T14:06:40.089Z,1.00
2023-12-12T14:09:11.585Z,1.20
2023-12-12T14:11:41.871Z,1.10
2023-12-12T14:14:12.386Z,1.20
2023-12-12T14:16:46.504Z,1.23
2023-12-12T14:19:20.580Z,1.17
2023-12-12T14:21:51.897Z,1.40
2023-12-12T14:24:22.657Z,1.38
2023-12-12T14:26:52.885Z,1.10
2023-12-12T14:29:27.476Z,1.50
2023-12-12T14:31:57.815Z,1.17
2023-12-12T14:34:30.936Z,1.25
2023-12-12T14:37:02.606Z,1.30
2023-12-12T14:39:33.002Z,1.15
2023-12-12T14:42:05.381Z,1.13
2023-12-12T14:44:35.805Z,1.23
2023-12-12T14:47:06.218Z,1.30
2023-12-12T14:49:39.415Z,1.38
2023-12-12T14:52:10.037Z,1.20
2023-12-12T14:54:40.356Z,1.27
2023-12-12T14:57:17.169Z,1.20
2023-12-12T14:59:50.986Z,1.20
2023-12-12T15:02:21.384Z,1.20
2023-12-12T15:04:54.809Z,1.42
2023-12-12T15:07:25.159Z,1.23
2023-12-12T15:09:55.448Z,1.40
2023-12-12T15:12:25.767Z,2.10
2023-12-12T15:14:58.125Z,2.42
2023-12-12T15:17:30.282Z,2.20
2023-12-12T15:20:04.722Z,2.00
2023-12-12T15:22:35.415Z,2.60
2023-12-12T15:25:06.865Z,1.92
2023-12-12T15:27:37.155Z,1.80
2023-12-12T15:30:09.376Z,1.63
2023-12-12T15:32:40.196Z,2.40
2023-12-12T15:35:14.176Z,2.65
2023-12-12T15:37:47.431Z,2.50
2023-12-12T15:40:19.062Z,6.03
2023-12-12T15:42:51.526Z,6.28
2023-12-12T15:45:21.854Z,6.05
2023-12-12T15:47:52.195Z,6.45
2023-12-12T15:50:25.749Z,4.70
2023-12-12T15:52:56.018Z,4.03
2023-12-12T15:55:26.360Z,3.30
2023-12-12T15:57:56.757Z,3.05
2023-12-12T16:00:27.204Z,2.55
2023-12-12T16:02:58.029Z,2.67
2023-12-12T16:05:34.684Z,3.08
2023-12-12T16:08:08.041Z,2.65
2023-12-12T16:10:38.289Z,2.65
2023-12-12T16:13:08.634Z,2.78
2023-12-12T16:15:38.928Z,2.60
2023-12-12T16:18:09.355Z,2.65
2023-12-12T16:20:43.126Z,2.75
2023-12-12T16:23:13.670Z,3.30
2023-12-12T16:25:44.074Z,2.78
2023-12-12T16:28:14.387Z,2.75
2023-12-12T16:30:44.842Z,3.00
2023-12-12T16:33:15.447Z,4.78
2023-12-12T16:35:50.749Z,4.07
2023-12-12T16:38:22.274Z,2.35
2023-12-12T16:40:53.093Z,2.88
2023-12-12T16:43:23.410Z,2.92
2023-12-12T16:45:53.873Z,3.28
2023-12-12T16:48:24.227Z,3.22
2023-12-12T16:50:57.371Z,3.40
2023-12-12T16:53:30.590Z,2.95
2023-12-12T16:56:00.892Z,3.17
2023-12-12T16:58:31.184Z,2.85
2023-12-12T17:01:01.850Z,3.22
2023-12-12T17:03:32.502Z,2.70
2023-12-12T17:06:05.667Z,2.50
2023-12-12T17:08:36.976Z,2.60
2023-12-12T17:11:10.060Z,2.85
2023-12-12T17:13:40.397Z,2.63
2023-12-12T17:16:13.302Z,3.33
2023-12-12T17:18:43.832Z,3.50
2023-12-12T17:21:16.884Z,3.47
2023-12-12T17:23:49.711Z,4.00
2023-12-12T17:26:20.732Z,3.83
2023-12-12T17:28:51.430Z,3.83
2023-12-12T17:31:21.915Z,4.22
2023-12-12T17:33:52.731Z,4.30
2023-12-12T17:36:25.644Z,4.25
2023-12-12T17:38:56.077Z,4.57
2023-12-12T17:41:26.603Z,5.22
2023-12-12T17:43:56.891Z,5.18
2023-12-12T17:46:27.364Z,4.45
2023-12-12T17:48:59.235Z,5.20
2023-12-12T17:51:32.148Z,7.10
2023-12-12T17:54:03.410Z,5.35
2023-12-12T17:56:33.661Z,4.38
2023-12-12T17:59:05.398Z,4.32
2023-12-12T18:01:38.133Z,3.42
2023-12-12T18:04:09.415Z,4.47
2023-12-12T18:06:43.048Z,4.18
2023-12-12T18:09:13.289Z,4.93
2023-12-12T18:11:44.361Z,4.43
2023-12-12T18:14:14.731Z,3.35
2023-12-12T18:16:45.121Z,3.00
2023-12-12T18:19:17.829Z,3.08
2023-12-12T18:21:50.769Z,3.10
2023-12-12T18:24:21.377Z,2.85
2023-12-12T18:26:53.129Z,2.95
2023-12-12T18:29:24.331Z,3.25
2023-12-12T18:31:57.004Z,4.75
2023-12-12T18:34:27.388Z,5.60
2023-12-12T18:37:03.814Z,6.10
2023-12-12T18:39:34.137Z,7.03
2023-12-12T18:42:05.237Z,7.07
2023-12-12T18:44:35.651Z,12.52
2023-12-12T18:47:05.946Z,21.20
2023-12-12T18:49:42.919Z,10.90
2023-12-12T18:52:15.897Z,9.52
2023-12-12T18:54:46.961Z,6.88
2023-12-12T18:57:17.238Z,7.30
2023-12-12T18:59:47.546Z,11.43
2023-12-12T19:02:18.031Z,6.18
2023-12-12T19:04:49.147Z,6.65
2023-12-12T19:07:22.167Z,8.77
2023-12-12T19:09:55.882Z,7.95
2023-12-12T19:12:26.219Z,13.05
2023-12-12T19:14:56.528Z,5.60
2023-12-12T19:17:27.120Z,6.20
2023-12-12T19:19:57.494Z,6.60
2023-12-12T19:22:31.326Z,8.27
2023-12-12T19:25:01.699Z,5.68
2023-12-12T19:27:33.518Z,5.13
2023-12-12T19:30:05.482Z,5.65
2023-12-12T19:32:38.765Z,4.55
2023-12-12T19:35:15.120Z,4.55
2023-12-12T19:37:49.701Z,4.47
2023-12-12T19:40:20.147Z,3.63
2023-12-12T19:42:55.675Z,3.65
2023-12-12T19:45:26.315Z,4.10
2023-12-12T19:47:56.616Z,4.18
2023-12-12T19:50:27.458Z,4.18
2023-12-12T19:53:05.719Z,3.67
2023-12-12T19:55:36.289Z,3.10
2023-12-12T19:58:06.696Z,2.78
2023-12-12T20:00:37.207Z,2.15
2023-12-12T20:03:07.670Z,2.13
2023-12-12T20:05:37.976Z,2.00
2023-12-12T20:08:11.073Z,2.65
2023-12-12T20:10:42.708Z,2.53
2023-12-12T20:13:13.152Z,2.40
2023-12-12T20:15:47.294Z,1.80
2023-12-12T20:18:22.863Z,2.53
2023-12-12T20:20:53.536Z,2.15
2023-12-12T20:23:26.899Z,2.60
2023-12-12T20:25:57.247Z,2.35
2023-12-12T20:28:27.594Z,3.20
2023-12-12T20:30:58.305Z,3.72
2023-12-12T20:33:29.126Z,4.13
2023-12-12T20:35:59.621Z,4.32
2023-12-12T20:38:34.850Z,4.80
2023-12-12T20:41:09.651Z,8.32
2023-12-12T20:43:40.590Z,10.98
2023-12-12T20:46:14.128Z,11.77
2023-12-12T20:48:46.814Z,11.55
2023-12-12T20:51:18.778Z,6.43
2023-12-12T20:53:51.966Z,5.10
2023-12-12T20:56:22.274Z,4.80
2023-12-12T20:58:52.708Z,4.47
2023-12-12T21:01:23.443Z,4.70
2023-12-12T21:03:54.550Z,4.85
2023-12-12T21:06:24.851Z,5.15
2023-12-12T21:08:57.723Z,5.88
2023-12-12T21:11:28.015Z,9.68
2023-12-12T21:13:59.946Z,12.52
2023-12-12T21:16:31.673Z,12.60
2023-12-12T21:19:02.251Z,11.00
2023-12-12T21:21:32.829Z,6.95
2023-12-12T21:24:07.976Z,5.47
2023-12-12T21:26:38.655Z,4.68
2023-12-12T21:29:09.622Z,4.30
2023-12-12T21:31:40.005Z,3.80
2023-12-12T21:34:11.575Z,4.80
2023-12-12T21:36:42.209Z,3.42
2023-12-12T21:39:15.102Z,3.50
2023-12-12T21:41:45.954Z,4.28
2023-12-12T21:44:16.693Z,4.00
2023-12-12T21:46:47.343Z,4.35
2023-12-12T21:49:18.235Z,5.10
2023-12-12T21:51:49.591Z,4.07
2023-12-12T21:54:22.453Z,3.63
2023-12-12T21:56:54.750Z,4.40
2023-12-12T21:59:25.077Z,3.38
2023-12-12T22:01:55.395Z,2.70
2023-12-12T22:04:25.738Z,3.22
2023-12-12T22:06:56.854Z,1.80
2023-12-12T22:09:29.685Z,1.30
2023-12-12T22:12:01.164Z,1.05
2023-12-12T22:14:31.494Z,0.90
2023-12-12T22:17:01.697Z,0.73
2023-12-12T22:19:32.017Z,1.00
2023-12-12T22:22:02.357Z,0.70
2023-12-12T22:24:37.034Z,0.93
2023-12-12T22:27:11.269Z,0.80
2023-12-12T22:29:41.572Z,0.80
2023-12-12T22:32:11.863Z,1.10
2023-12-12T22:34:42.165Z,0.80
2023-12-12T22:37:12.490Z,1.00
2023-12-12T22:39:45.384Z,1.23
2023-12-12T22:42:16.476Z,1.40
2023-12-12T22:44:46.742Z,1.35
2023-12-12T22:47:17.014Z,1.30
2023-12-12T22:49:47.633Z,1.33
2023-12-12T22:52:18.076Z,1.40
2023-12-12T22:54:51.082Z,1.60
2023-12-12T22:57:21.813Z,0.90
2023-12-12T22:59:52.111Z,1.42
2023-12-12T23:02:22.381Z,1.42
2023-12-12T23:04:52.718Z,1.70
2023-12-12T23:07:23.200Z,1.48
2023-12-12T23:09:56.121Z,0.93
2023-12-12T23:12:26.349Z,1.35
2023-12-12T23:14:56.661Z,1.10
2023-12-12T23:17:26.909Z,1.83
2023-12-12T23:19:57.312Z,2.00
2023-12-12T23:22:27.669Z,2.90
2023-12-12T23:25:00.516Z,3.67
2023-12-12T23:27:31.445Z,2.85
2023-12-12T23:30:01.770Z,1.70
2023-12-12T23:32:32.061Z,1.20
2023-12-12T23:35:02.357Z,1.40
2023-12-12T23:37:32.924Z,0.90
2023-12-12T23:40:07.439Z,1.00
2023-12-12T23:42:37.671Z,1.20
2023-12-12T23:45:09.764Z,2.35
2023-12-12T23:47:42.264Z,2.72
2023-12-12T23:50:14.022Z,1.40
2023-12-12T23:52:44.336Z,0.80
2023-12-12T23:55:17.569Z,0.73
2023-12-12T23:57:47.885Z,0.93
